Time,TemperatureF,DewpointF,PressureIn,WindDirection,WindDirectionDegrees,WindSpeedMPH,WindSpeedGustMPH,Humidity,HourlyPrecipIn,Conditions,Clouds,dailyrainin,SoftwareType,DateUTC
2013-07-06 00:01:00,73.4,70.0,30.17,SSW,192,0.0,0.0,89,0.00,,---,0.00,VWS V14.01,2013-07-06 04:01:00,
2013-07-06 00:06:00,72.9,69.5,30.17,SSW,193,0.0,0.0,89,0.00,,---,0.00,VWS V14.01,2013-07-06 04:06:00,
2013-07-06 00:11:00,72.6,69.2,30.17,SSW,192,0.0,0.0,89,0.00,,---,0.00,VWS V14.01,2013-07-06 04:11:00,
2013-07-06 00:16:00,72.4,69.0,30.17,SSW,193,0.0,0.0,89,0.00,,---,0.00,VWS V14.01,2013-07-06 04:16:00,
2013-07-06 00:21:00,72.3,68.9,30.17,SSW,193,0.0,0.0,89,0.00,,---,0.00,VWS V14.01,2013-07-06 04:21:00,
2013-07-06 00:26:00,72.3,69.2,30.17,SSW,193,0.0,0.0,90,0.00,,---,0.00,VWS V14.01,2013-07-06 04:26:00,
2013-07-06 00:31:00,72.4,69.3,30.17,SSW,193,0.0,0.0,90,0.00,,---,0.00,VWS V14.01,2013-07-06 04:31:00,
2013-07-06 00:36:00,72.5,69.4,30.17,SSW,193,0.0,0.0,90,0.00,,---,0.00,VWS V14.01,2013-07-06 04:36:00,
2013-07-06 00:41:00,72.5,69.1,30.17,SSW,192,0.0,1.0,89,0.00,,---,0.00,VWS V14.01,2013-07-06 04:41:00,
2013-07-06 00:46:00,72.5,69.1,30.17,SSW,192,0.0,1.0,89,0.00,,---,0.00,VWS V14.01,2013-07-06 04:46:00,
2013-07-06 00:51:00,72.5,69.1,30.17,SSW,192,0.0,1.0,89,0.00,,---,0.00,VWS V14.01,2013-07-06 04:51:00,
2013-07-06 00:56:00,72.5,69.1,30.17,SSW,193,0.0,1.0,89,0.00,,---,0.00,VWS V14.01,2013-07-06 04:56:00,
2013-07-06 01:01:00,72.5,69.1,30.16,SSW,192,0.0,0.0,89,0.00,,---,0.00,VWS V14.01,2013-07-06 05:01:00,
2013-07-06 01:06:00,72.5,69.1,30.16,SSW,193,0.0,0.0,89,0.00,,---,0.00,VWS V14.01,2013-07-06 05:06:00,
2013-07-06 01:11:00,72.5,69.1,30.16,SSW,192,0.0,1.0,89,0.00,,---,0.00,VWS V14.01,2013-07-06 05:11:00,
2013-07-06 01:16:00,72.5,69.1,30.16,SSW,193,0.0,1.0,89,0.00,,---,0.00,VWS V14.01,2013-07-06 05:16:00,
2013-07-06 01:21:00,72.4,69.0,30.16,SSW,193,0.0,1.0,89,0.00,,---,0.00,VWS V14.01,2013-07-06 05:21:00,
2013-07-06 01:26:00,72.4,69.0,30.16,SSW,192,0.0,1.0,89,0.00,,---,0.00,VWS V14.01,2013-07-06 05:26:00,
2013-07-06 01:31:00,72.2,68.8,30.16,SSW,192,0.0,0.0,89,0.00,,---,0.00,VWS V14.01,2013-07-06 05:31:00,
2013-07-06 01:36:00,72.1,69.0,30.16,SSW,193,0.0,0.0,90,0.00,,---,0.00,VWS V14.01,2013-07-06 05:36:00,
2013-07-06 01:41:00,72.0,68.9,30.16,SSW,193,0.0,0.0,90,0.00,,---,0.00,VWS V14.01,2013-07-06 05:41:00,
2013-07-06 01:46:00,71.9,68.8,30.16,SSW,193,0.0,0.0,90,0.00,,---,0.00,VWS V14.01,2013-07-06 05:46:00,
2013-07-06 01:51:00,71.7,68.6,30.16,SSW,192,2.0,2.0,90,0.00,,---,0.00,VWS V14.01,2013-07-06 05:51:00,
2013-07-06 01:56:00,71.5,68.4,30.15,SSW,192,0.0,2.0,90,0.00,,---,0.00,VWS V14.01,2013-07-06 05:56:00,
2013-07-06 02:00:00,71.3,68.2,30.16,SSW,193,0.0,0.0,90,0.00,,---,0.00,VWS V14.01,2013-07-06 06:00:00,
2013-07-06 02:05:00,71.3,68.2,30.16,SSW,193,0.0,0.0,90,0.00,,---,0.00,VWS V14.01,2013-07-06 06:05:00,
2013-07-06 02:10:00,71.2,68.1,30.16,SSW,193,0.0,0.0,90,0.00,,---,0.00,VWS V14.01,2013-07-06 06:10:00,
2013-07-06 02:15:00,71.1,68.0,30.16,SSW,193,0.0,0.0,90,0.00,,---,0.00,VWS V14.01,2013-07-06 06:15:00,
2013-07-06 02:20:00,71.0,67.9,30.16,SSW,192,0.0,0.0,90,0.00,,---,0.00,VWS V14.01,2013-07-06 06:20:00,
2013-07-06 02:25:00,71.0,68.2,30.16,SSW,193,0.0,0.0,91,0.00,,---,0.00,VWS V14.01,2013-07-06 06:25:00,
2013-07-06 02:30:00,71.0,68.2,30.16,SSW,193,0.0,0.0,91,0.00,,---,0.00,VWS V14.01,2013-07-06 06:30:00,
2013-07-06 02:35:00,70.8,68.1,30.16,SSW,193,0.0,0.0,91,0.00,,---,0.00,VWS V14.01,2013-07-06 06:35:00,
2013-07-06 02:40:00,70.6,67.8,30.16,SSW,193,0.0,0.0,91,0.00,,---,0.00,VWS V14.01,2013-07-06 06:40:00,
2013-07-06 02:45:00,70.5,67.8,30.16,SSW,192,0.0,1.0,91,0.00,,---,0.00,VWS V14.01,2013-07-06 06:45:00,
2013-07-06 02:50:00,70.4,67.7,30.16,SSW,193,0.0,1.0,91,0.00,,---,0.00,VWS V14.01,2013-07-06 06:50:00,
2013-07-06 02:55:00,70.3,67.6,30.16,SSW,193,0.0,1.0,91,0.00,,---,0.00,VWS V14.01,2013-07-06 06:55:00,
2013-07-06 03:00:00,70.3,67.6,30.16,SSW,193,0.0,0.0,91,0.00,,---,0.00,VWS V14.01,2013-07-06 07:00:00,
2013-07-06 03:05:00,70.4,67.7,30.16,SSW,193,0.0,0.0,91,0.00,,---,0.00,VWS V14.01,2013-07-06 07:05:00,
2013-07-06 03:10:00,70.4,67.7,30.16,SSW,193,0.0,0.0,91,0.00,,---,0.00,VWS V14.01,2013-07-06 07:10:00,
2013-07-06 03:15:00,70.3,67.6,30.16,SSW,193,0.0,0.0,91,0.00,,---,0.00,VWS V14.01,2013-07-06 07:15:00,
2013-07-06 03:20:00,70.3,67.6,30.16,SSW,192,0.0,0.0,91,0.00,,---,0.00,VWS V14.01,2013-07-06 07:20:00,
2013-07-06 03:25:00,70.2,67.4,30.16,SSW,192,0.0,0.0,91,0.00,,---,0.00,VWS V14.01,2013-07-06 07:25:00,
2013-07-06 03:30:00,70.2,67.4,30.16,SSW,193,0.0,0.0,91,0.00,,---,0.00,VWS V14.01,2013-07-06 07:30:00,
2013-07-06 03:35:00,69.9,67.2,30.16,SSW,193,0.0,1.0,91,0.00,,---,0.00,VWS V14.01,2013-07-06 07:35:00,
2013-07-06 03:40:00,69.4,66.7,30.16,SSW,193,0.0,1.0,91,0.00,,---,0.00,VWS V14.01,2013-07-06 07:40:00,
2013-07-06 03:45:00,69.3,66.6,30.16,SSW,192,0.0,1.0,91,0.00,,---,0.00,VWS V14.01,2013-07-06 07:45:00,
2013-07-06 03:50:00,69.4,67.0,30.16,SSW,193,0.0,1.0,92,0.00,,---,0.00,VWS V14.01,2013-07-06 07:50:00,
2013-07-06 03:55:00,69.5,67.1,30.16,SSW,192,0.0,1.0,92,0.00,,---,0.00,VWS V14.01,2013-07-06 07:55:00,
2013-07-06 04:00:00,69.5,67.1,30.16,SSW,192,0.0,1.0,92,0.00,,---,0.00,VWS V14.01,2013-07-06 08:00:00,
2013-07-06 04:05:00,69.6,67.2,30.16,SSW,193,0.0,1.0,92,0.00,,---,0.00,VWS V14.01,2013-07-06 08:05:00,
2013-07-06 04:10:00,69.9,67.5,30.16,SSW,193,0.0,1.0,92,0.00,,---,0.00,VWS V14.01,2013-07-06 08:10:00,
2013-07-06 04:15:00,70.3,67.9,30.16,SSW,193,0.0,1.0,92,0.00,,---,0.00,VWS V14.01,2013-07-06 08:15:00,
2013-07-06 04:20:00,70.6,68.2,30.16,SSW,192,2.0,2.0,92,0.00,,---,0.00,VWS V14.01,2013-07-06 08:20:00,
2013-07-06 04:25:00,71.0,68.2,30.15,South,189,0.0,3.0,91,0.00,,---,0.00,VWS V14.01,2013-07-06 08:25:00,
2013-07-06 04:30:00,71.0,68.2,30.16,South,190,0.0,3.0,91,0.00,,---,0.00,VWS V14.01,2013-07-06 08:30:00,
2013-07-06 04:35:00,70.7,67.9,30.16,SW,233,1.0,3.0,91,0.00,,---,0.00,VWS V14.01,2013-07-06 08:35:00,
2013-07-06 04:40:00,70.4,67.3,30.16,SW,233,0.0,3.0,90,0.00,,---,0.00,VWS V14.01,2013-07-06 08:40:00,
2013-07-06 04:45:00,70.2,67.4,30.16,SW,233,1.0,3.0,91,0.00,,---,0.00,VWS V14.01,2013-07-06 08:45:00,
2013-07-06 04:50:00,70.0,67.3,30.16,SW,233,0.0,3.0,91,0.00,,---,0.00,VWS V14.01,2013-07-06 08:50:00,
2013-07-06 04:55:00,69.9,67.2,30.16,SW,233,0.0,3.0,91,0.00,,---,0.00,VWS V14.01,2013-07-06 08:55:00,
2013-07-06 05:00:00,69.7,67.0,30.16,SW,233,0.0,3.0,91,0.00,,---,0.00,VWS V14.01,2013-07-06 09:00:00,
2013-07-06 05:05:00,69.5,66.8,30.16,SW,233,0.0,0.0,91,0.00,,---,0.00,VWS V14.01,2013-07-06 09:05:00,
2013-07-06 05:10:00,69.4,67.0,30.16,SW,233,0.0,0.0,92,0.00,,---,0.00,VWS V14.01,2013-07-06 09:10:00,
2013-07-06 05:15:00,69.4,67.0,30.16,SW,233,0.0,0.0,92,0.00,,---,0.00,VWS V14.01,2013-07-06 09:15:00,
2013-07-06 05:20:00,69.4,67.0,30.16,SW,233,0.0,0.0,92,0.00,,---,0.00,VWS V14.01,2013-07-06 09:20:00,
2013-07-06 05:25:00,69.3,66.9,30.16,SW,233,0.0,0.0,92,0.00,,---,0.00,VWS V14.01,2013-07-06 09:25:00,
2013-07-06 05:30:00,69.3,66.9,30.17,SW,233,0.0,0.0,92,0.00,,---,0.00,VWS V14.01,2013-07-06 09:30:00,
2013-07-06 05:35:00,69.2,66.8,30.17,SW,231,0.0,0.0,92,0.00,,---,0.00,VWS V14.01,2013-07-06 09:35:00,
2013-07-06 05:40:00,69.2,66.8,30.17,SW,232,0.0,0.0,92,0.00,,---,0.00,VWS V14.01,2013-07-06 09:40:00,
2013-07-06 05:45:00,69.1,66.7,30.17,NNE,15,0.0,0.0,92,0.00,,---,0.00,VWS V14.01,2013-07-06 09:45:00,
2013-07-06 05:50:00,69.1,66.7,30.17,NNE,15,0.0,0.0,92,0.00,,---,0.00,VWS V14.01,2013-07-06 09:50:00,
2013-07-06 05:55:00,69.0,66.6,30.18,NE,48,0.0,0.0,92,0.00,,---,0.00,VWS V14.01,2013-07-06 09:55:00,
2013-07-06 06:00:00,68.8,66.4,30.18,NE,48,0.0,0.0,92,0.00,,---,0.00,VWS V14.01,2013-07-06 10:00:00,
2013-07-06 06:05:00,68.7,66.3,30.18,NE,51,0.0,1.0,92,0.00,,---,0.00,VWS V14.01,2013-07-06 10:05:00,
2013-07-06 06:10:00,68.8,66.4,30.18,SE,125,0.0,1.0,92,0.00,,---,0.00,VWS V14.01,2013-07-06 10:10:00,
2013-07-06 06:15:00,68.9,66.5,30.18,SE,125,0.0,1.0,92,0.00,,---,0.00,VWS V14.01,2013-07-06 10:15:00,
2013-07-06 06:20:00,68.9,66.5,30.18,SE,125,0.0,1.0,92,0.00,,---,0.00,VWS V14.01,2013-07-06 10:20:00,
2013-07-06 06:25:00,69.2,66.8,30.18,SE,125,0.0,1.0,92,0.00,,---,0.00,VWS V14.01,2013-07-06 10:25:00,
2013-07-06 06:30:00,69.3,66.9,30.19,SE,125,0.0,1.0,92,0.00,,---,0.00,VWS V14.01,2013-07-06 10:30:00,
2013-07-06 06:35:00,69.5,67.1,30.19,SE,125,0.0,0.0,92,0.00,,---,0.00,VWS V14.01,2013-07-06 10:35:00,
2013-07-06 06:40:00,69.8,67.4,30.19,SE,126,0.0,0.0,92,0.00,,---,0.00,VWS V14.01,2013-07-06 10:40:00,
2013-07-06 06:45:00,70.3,67.9,30.19,SE,125,0.0,0.0,92,0.00,,---,0.00,VWS V14.01,2013-07-06 10:45:00,
2013-07-06 06:50:00,70.6,68.2,30.19,SE,145,0.0,1.0,92,0.00,,---,0.00,VWS V14.01,2013-07-06 10:50:00,
2013-07-06 06:55:00,71.0,68.6,30.18,South,181,0.0,1.0,92,0.00,,---,0.00,VWS V14.01,2013-07-06 10:55:00,
2013-07-06 07:00:00,71.3,68.9,30.18,South,181,0.0,1.0,92,0.00,,---,0.00,VWS V14.01,2013-07-06 11:00:00,
2013-07-06 07:05:00,71.9,69.4,30.19,South,181,0.0,1.0,92,0.00,,---,0.00,VWS V14.01,2013-07-06 11:05:00,
2013-07-06 07:10:00,72.1,69.3,30.19,South,184,0.0,1.0,91,0.00,,---,0.00,VWS V14.01,2013-07-06 11:10:00,
2013-07-06 07:15:00,72.7,69.9,30.19,SE,134,0.0,1.0,91,0.00,,---,0.00,VWS V14.01,2013-07-06 11:15:00,
2013-07-06 07:20:00,73.3,70.2,30.19,East,94,0.0,1.0,90,0.00,,---,0.00,VWS V14.01,2013-07-06 11:20:00,
2013-07-06 07:25:00,74.0,70.6,30.19,NNE,17,0.0,1.0,89,0.00,,---,0.00,VWS V14.01,2013-07-06 11:25:00,
2013-07-06 07:30:00,74.9,71.1,30.19,West,272,0.0,1.0,88,0.00,,---,0.00,VWS V14.01,2013-07-06 11:30:00,
2013-07-06 07:35:00,75.5,71.0,30.19,WSW,239,0.0,1.0,86,0.00,,---,0.00,VWS V14.01,2013-07-06 11:35:00,
2013-07-06 07:40:00,75.6,70.8,30.18,WSW,239,0.0,1.0,85,0.00,,---,0.00,VWS V14.01,2013-07-06 11:40:00,
2013-07-06 07:45:00,75.7,70.9,30.18,NE,42,0.0,1.0,85,0.00,,---,0.00,VWS V14.01,2013-07-06 11:45:00,
2013-07-06 07:50:00,75.6,70.8,30.18,NE,42,0.0,1.0,85,0.00,,---,0.00,VWS V14.01,2013-07-06 11:50:00,
2013-07-06 07:55:00,75.7,70.9,30.18,NE,41,1.0,1.0,85,0.00,,---,0.00,VWS V14.01,2013-07-06 11:55:00,
2013-07-06 08:00:00,75.8,71.3,30.18,NW,325,0.0,1.0,86,0.00,,---,0.00,VWS V14.01,2013-07-06 12:00:00,
2013-07-06 08:05:00,76.0,71.2,30.19,NW,325,0.0,1.0,85,0.00,,---,0.00,VWS V14.01,2013-07-06 12:05:00,
2013-07-06 08:10:00,76.4,71.6,30.19,East,96,0.0,1.0,85,0.00,,---,0.00,VWS V14.01,2013-07-06 12:10:00,
2013-07-06 08:15:00,76.8,71.2,30.19,East,88,1.0,2.0,83,0.00,,---,0.00,VWS V14.01,2013-07-06 12:15:00,
2013-07-06 08:20:00,76.8,71.2,30.19,West,265,0.0,2.0,83,0.00,,---,0.00,VWS V14.01,2013-07-06 12:20:00,
2013-07-06 08:25:00,77.1,71.9,30.19,West,265,0.0,2.0,84,0.00,,---,0.00,VWS V14.01,2013-07-06 12:25:00,
2013-07-06 08:30:00,77.5,71.9,30.19,West,265,0.0,2.0,83,0.00,,---,0.00,VWS V14.01,2013-07-06 12:30:00,
2013-07-06 08:35:00,77.7,72.1,30.19,West,274,1.0,2.0,83,0.00,,---,0.00,VWS V14.01,2013-07-06 12:35:00,
2013-07-06 08:40:00,78.3,72.4,30.18,WNW,288,1.0,2.0,82,0.00,,---,0.00,VWS V14.01,2013-07-06 12:40:00,
2013-07-06 08:45:00,79.0,72.7,30.18,WNW,293,0.0,2.0,81,0.00,,---,0.00,VWS V14.01,2013-07-06 12:45:00,
2013-07-06 08:50:00,79.4,73.1,30.18,WNW,292,0.0,2.0,81,0.00,,---,0.00,VWS V14.01,2013-07-06 12:50:00,
2013-07-06 08:55:00,80.1,73.4,30.18,WNW,296,1.0,2.0,80,0.00,,---,0.00,VWS V14.01,2013-07-06 12:55:00,
2013-07-06 09:00:00,80.8,72.5,30.18,WNW,295,0.0,2.0,76,0.00,,---,0.00,VWS V14.01,2013-07-06 13:00:00,
2013-07-06 09:05:00,81.2,72.5,30.18,WNW,296,1.0,2.0,75,0.00,,---,0.00,VWS V14.01,2013-07-06 13:05:00,
2013-07-06 09:10:00,81.4,72.3,30.18,WNW,295,0.0,2.0,74,0.00,,---,0.00,VWS V14.01,2013-07-06 13:10:00,
2013-07-06 09:15:00,81.5,72.4,30.18,SW,226,0.0,3.0,74,0.00,,---,0.00,VWS V14.01,2013-07-06 13:15:00,
2013-07-06 09:20:00,82.5,73.0,30.18,SW,221,0.0,3.0,73,0.00,,---,0.00,VWS V14.01,2013-07-06 13:20:00,
2013-07-06 09:25:00,82.7,71.9,30.18,South,188,4.0,7.0,70,0.00,,---,0.00,VWS V14.01,2013-07-06 13:25:00,
2013-07-06 09:30:00,82.5,71.7,30.18,SW,234,1.0,7.0,70,0.00,,---,0.00,VWS V14.01,2013-07-06 13:30:00,
2013-07-06 09:35:00,82.9,72.5,30.18,WSW,237,1.0,4.0,71,0.00,,---,0.00,VWS V14.01,2013-07-06 13:35:00,
2013-07-06 09:39:00,83.1,71.4,30.18,WSW,250,3.0,4.0,68,0.00,,---,0.00,VWS V14.01,2013-07-06 13:39:00,
2013-07-06 09:44:00,83.1,71.9,30.17,WSW,252,0.0,4.0,69,0.00,,---,0.00,VWS V14.01,2013-07-06 13:44:00,
2013-07-06 09:49:00,83.4,71.7,30.18,South,186,1.0,5.0,68,0.00,,---,0.00,VWS V14.01,2013-07-06 13:49:00,
2013-07-06 09:54:00,83.7,72.5,30.17,SSW,204,1.0,5.0,69,0.00,,---,0.00,VWS V14.01,2013-07-06 13:54:00,
2013-07-06 09:59:00,84.3,73.0,30.17,SSW,202,2.0,5.0,69,0.00,,---,0.00,VWS V14.01,2013-07-06 13:59:00,
2013-07-06 10:04:00,84.8,72.6,30.18,NW,313,4.0,5.0,67,0.00,,---,0.00,VWS V14.01,2013-07-06 14:04:00,
2013-07-06 10:09:00,84.5,71.9,30.18,SSW,213,1.0,5.0,66,0.00,,---,0.00,VWS V14.01,2013-07-06 14:09:00,
2013-07-06 10:14:00,84.4,72.2,30.18,SW,218,0.0,5.0,67,0.00,,---,0.00,VWS V14.01,2013-07-06 14:14:00,
2013-07-06 10:19:00,85.1,72.5,30.17,NW,308,0.0,5.0,66,0.00,,---,0.00,VWS V14.01,2013-07-06 14:19:00,
2013-07-06 10:24:00,85.6,72.5,30.17,SSE,161,1.0,5.0,65,0.00,,---,0.00,VWS V14.01,2013-07-06 14:24:00,
2013-07-06 10:29:00,85.9,72.8,30.17,South,187,0.0,5.0,65,0.00,,---,0.00,VWS V14.01,2013-07-06 14:29:00,
2013-07-06 10:34:00,85.6,71.6,30.17,South,180,1.0,5.0,63,0.00,,---,0.00,VWS V14.01,2013-07-06 14:34:00,
2013-07-06 10:39:00,85.5,72.8,30.17,SSW,192,0.0,5.0,66,0.00,,---,0.00,VWS V14.01,2013-07-06 14:39:00,
2013-07-06 10:44:00,86.3,73.2,30.17,South,191,0.0,5.0,65,0.00,,---,0.00,VWS V14.01,2013-07-06 14:44:00,
2013-07-06 10:49:00,86.8,72.7,30.17,NNW,336,0.0,5.0,63,0.00,,---,0.00,VWS V14.01,2013-07-06 14:49:00,
2013-07-06 10:54:00,86.6,72.5,30.17,North,360,5.0,5.0,63,0.00,,---,0.00,VWS V14.01,2013-07-06 14:54:00,
2013-07-06 10:59:00,86.4,72.3,30.17,West,265,3.0,7.0,63,0.00,,---,0.00,VWS V14.01,2013-07-06 14:59:00,
2013-07-06 11:04:00,86.1,72.5,30.17,South,180,2.0,6.0,64,0.00,,---,0.00,VWS V14.01,2013-07-06 15:04:00,
2013-07-06 11:09:00,86.2,71.7,30.17,SW,229,1.0,6.0,62,0.00,,---,0.00,VWS V14.01,2013-07-06 15:09:00,
2013-07-06 11:14:00,86.4,71.8,30.17,South,180,0.0,6.0,62,0.00,,---,0.00,VWS V14.01,2013-07-06 15:14:00,
2013-07-06 11:19:00,86.8,72.7,30.17,South,178,0.0,6.0,63,0.00,,---,0.00,VWS V14.01,2013-07-06 15:19:00,
2013-07-06 11:24:00,87.2,72.6,30.17,SSW,200,0.0,6.0,62,0.00,,---,0.00,VWS V14.01,2013-07-06 15:24:00,
2013-07-06 11:29:00,87.3,72.7,30.17,WSW,242,2.0,6.0,62,0.00,,---,0.00,VWS V14.01,2013-07-06 15:29:00,
2013-07-06 11:34:00,87.1,71.5,30.17,WSW,248,0.0,3.0,60,0.00,,---,0.00,VWS V14.01,2013-07-06 15:34:00,
2013-07-06 11:39:00,87.9,73.3,30.17,WNW,285,2.0,4.0,62,0.00,,---,0.00,VWS V14.01,2013-07-06 15:39:00,
2013-07-06 11:44:00,87.5,71.4,30.17,WSW,249,0.0,7.0,59,0.00,,---,0.00,VWS V14.01,2013-07-06 15:44:00,
2013-07-06 11:49:00,87.6,72.5,30.16,SW,227,0.0,7.0,61,0.00,,---,0.00,VWS V14.01,2013-07-06 15:49:00,
2013-07-06 11:54:00,87.6,72.0,30.16,NW,315,2.0,7.0,60,0.00,,---,0.00,VWS V14.01,2013-07-06 15:54:00,
2013-07-06 11:59:00,87.7,73.1,30.16,SSW,194,3.0,7.0,62,0.00,,---,0.00,VWS V14.01,2013-07-06 15:59:00,
2013-07-06 12:04:00,88.2,72.1,30.16,SW,232,0.0,5.0,59,0.00,,---,0.00,VWS V14.01,2013-07-06 16:04:00,
2013-07-06 12:10:00,88.6,71.9,30.16,SSW,208,1.0,7.0,58,0.00,,---,0.00,VWS V14.01,2013-07-06 16:10:00,
2013-07-06 12:15:00,88.5,71.8,30.16,NW,322,3.0,7.0,58,0.00,,---,0.00,VWS V14.01,2013-07-06 16:15:00,
2013-07-06 12:20:00,88.4,72.3,30.16,WSW,256,4.0,7.0,59,0.00,,---,0.00,VWS V14.01,2013-07-06 16:20:00,
2013-07-06 12:25:00,88.6,71.4,30.15,WNW,284,2.0,7.0,57,0.00,,---,0.00,VWS V14.01,2013-07-06 16:25:00,
2013-07-06 12:30:00,88.4,71.2,30.15,WSW,252,2.0,7.0,57,0.00,,---,0.00,VWS V14.01,2013-07-06 16:30:00,
2013-07-06 12:36:00,88.9,72.7,30.15,SW,231,5.0,6.0,59,0.00,,---,0.00,VWS V14.01,2013-07-06 16:36:00,
2013-07-06 12:41:00,88.9,71.7,30.15,WNW,294,2.0,9.0,57,0.00,,---,0.00,VWS V14.01,2013-07-06 16:41:00,
2013-07-06 12:46:00,88.3,72.2,30.14,South,176,1.0,9.0,59,0.00,,---,0.00,VWS V14.01,2013-07-06 16:46:00,
2013-07-06 12:51:00,88.6,72.4,30.14,SW,219,1.0,9.0,59,0.00,,---,0.00,VWS V14.01,2013-07-06 16:51:00,
2013-07-06 12:56:00,88.9,72.2,30.14,WSW,237,1.0,9.0,58,0.00,,---,0.00,VWS V14.01,2013-07-06 16:56:00,
2013-07-06 13:01:00,88.8,72.6,30.14,SSW,205,6.0,6.0,59,0.00,,---,0.00,VWS V14.01,2013-07-06 17:01:00,
2013-07-06 13:07:00,88.9,72.7,30.13,West,268,3.0,7.0,59,0.00,,---,0.00,VWS V14.01,2013-07-06 17:07:00,
2013-07-06 13:12:00,89.2,73.5,30.13,WSW,244,1.0,7.0,60,0.00,,---,0.00,VWS V14.01,2013-07-06 17:12:00,
2013-07-06 13:17:00,89.7,74.5,30.13,SSW,204,5.0,9.0,61,0.00,,---,0.00,VWS V14.01,2013-07-06 17:17:00,
2013-07-06 13:22:00,90.2,74.4,30.13,SW,232,2.0,9.0,60,0.00,,---,0.00,VWS V14.01,2013-07-06 17:22:00,
2013-07-06 13:27:00,90.2,73.9,30.13,WSW,252,6.0,9.0,59,0.00,,---,0.00,VWS V14.01,2013-07-06 17:27:00,
2013-07-06 13:32:00,89.8,74.6,30.13,SSW,213,2.0,5.0,61,0.00,,---,0.00,VWS V14.01,2013-07-06 17:32:00,
2013-07-06 13:37:00,90.0,74.3,30.13,SSW,198,0.0,6.0,60,0.00,,---,0.00,VWS V14.01,2013-07-06 17:37:00,
2013-07-06 13:42:00,89.3,74.1,30.12,SSE,165,5.0,6.0,61,0.00,,---,0.00,VWS V14.01,2013-07-06 17:42:00,
2013-07-06 13:47:00,88.9,73.2,30.12,WSW,248,3.0,6.0,60,0.00,,---,0.00,VWS V14.01,2013-07-06 17:47:00,
2013-07-06 13:53:00,88.7,73.0,30.12,SW,235,1.0,6.0,60,0.00,,---,0.00,VWS V14.01,2013-07-06 17:53:00,
2013-07-06 13:58:00,87.9,72.8,30.12,NE,40,0.0,6.0,61,0.00,,---,0.00,VWS V14.01,2013-07-06 17:58:00,
2013-07-06 14:03:00,88.1,73.4,30.12,SW,227,0.0,3.0,62,0.00,,---,0.00,VWS V14.01,2013-07-06 18:03:00,
2013-07-06 14:08:00,87.9,72.8,30.12,SSE,165,2.0,7.0,61,0.00,,---,0.00,VWS V14.01,2013-07-06 18:08:00,
2013-07-06 14:13:00,87.5,72.9,30.11,SW,236,2.0,9.0,62,0.00,,---,0.00,VWS V14.01,2013-07-06 18:13:00,
2013-07-06 14:18:00,87.2,72.6,30.11,SSW,199,2.0,9.0,62,0.00,,---,0.00,VWS V14.01,2013-07-06 18:18:00,
2013-07-06 14:24:00,87.2,72.6,30.11,South,181,1.0,9.0,62,0.00,,---,0.00,VWS V14.01,2013-07-06 18:24:00,
2013-07-06 14:29:00,87.6,73.9,30.11,SSE,164,0.0,9.0,64,0.00,,---,0.00,VWS V14.01,2013-07-06 18:29:00,
2013-07-06 14:34:00,87.9,74.7,30.11,South,182,2.0,5.0,65,0.00,,---,0.00,VWS V14.01,2013-07-06 18:34:00,
2013-07-06 14:39:00,87.8,74.1,30.11,South,187,5.0,7.0,64,0.00,,---,0.00,VWS V14.01,2013-07-06 18:39:00,
2013-07-06 14:44:00,87.3,73.6,30.11,SSW,211,2.0,7.0,64,0.00,,---,0.00,VWS V14.01,2013-07-06 18:44:00,
2013-07-06 14:50:00,87.8,73.2,30.10,SSW,198,2.0,7.0,62,0.00,,---,0.00,VWS V14.01,2013-07-06 18:50:00,
2013-07-06 14:55:00,88.8,73.6,30.10,South,180,3.0,7.0,61,0.00,,---,0.00,VWS V14.01,2013-07-06 18:55:00,
2013-07-06 15:00:00,88.8,73.1,30.10,SSW,202,3.0,7.0,60,0.00,,---,0.00,VWS V14.01,2013-07-06 19:00:00,
2013-07-06 15:05:00,88.9,74.2,30.10,SSE,156,2.0,8.0,62,0.00,,---,0.00,VWS V14.01,2013-07-06 19:05:00,
2013-07-06 15:10:00,89.5,74.8,30.10,WSW,256,1.0,12.0,62,0.00,,---,0.00,VWS V14.01,2013-07-06 19:10:00,
2013-07-06 15:15:00,90.2,74.9,30.10,WSW,238,4.0,12.0,61,0.00,,---,0.00,VWS V14.01,2013-07-06 19:15:00,
2013-07-06 15:20:00,90.9,75.6,30.10,WSW,255,3.0,12.0,61,0.00,,---,0.00,VWS V14.01,2013-07-06 19:20:00,
2013-07-06 15:25:00,90.9,75.1,30.09,WSW,238,4.0,12.0,60,0.00,,---,0.00,VWS V14.01,2013-07-06 19:25:00,
2013-07-06 15:30:00,91.0,74.7,30.09,SW,236,5.0,12.0,59,0.00,,---,0.00,VWS V14.01,2013-07-06 19:30:00,
2013-07-06 15:35:00,90.7,74.9,30.09,SSE,168,4.0,12.0,60,0.00,,---,0.00,VWS V14.01,2013-07-06 19:35:00,
2013-07-06 15:41:00,90.4,74.6,30.09,SSW,205,2.0,12.0,60,0.00,,---,0.00,VWS V14.01,2013-07-06 19:41:00,
2013-07-06 15:46:00,89.5,74.3,30.09,South,182,1.0,12.0,61,0.00,,---,0.00,VWS V14.01,2013-07-06 19:46:00,
2013-07-06 15:51:00,88.8,74.1,30.09,SW,220,2.0,12.0,62,0.00,,---,0.00,VWS V14.01,2013-07-06 19:51:00,
2013-07-06 15:56:00,88.8,73.6,30.09,South,176,3.0,12.0,61,0.00,,---,0.00,VWS V14.01,2013-07-06 19:56:00,
2013-07-06 16:01:00,87.9,73.3,30.09,SSW,203,3.0,9.0,62,0.00,,---,0.00,VWS V14.01,2013-07-06 20:01:00,
2013-07-06 16:07:00,87.9,72.8,30.09,SSW,196,8.0,11.0,61,0.00,,---,0.00,VWS V14.01,2013-07-06 20:07:00,
2013-07-06 16:12:00,88.1,73.4,30.08,SW,227,5.0,11.0,62,0.00,,---,0.00,VWS V14.01,2013-07-06 20:12:00,
2013-07-06 16:17:00,88.6,73.4,30.08,South,178,5.0,12.0,61,0.00,,---,0.00,VWS V14.01,2013-07-06 20:17:00,
2013-07-06 16:22:00,89.1,73.4,30.08,SSE,159,3.0,12.0,60,0.00,,---,0.00,VWS V14.01,2013-07-06 20:22:00,
2013-07-06 16:27:00,89.3,73.6,30.08,South,173,4.0,12.0,60,0.00,,---,0.00,VWS V14.01,2013-07-06 20:27:00,
2013-07-06 16:33:00,88.7,73.0,30.08,South,184,12.0,12.0,60,0.00,,---,0.00,VWS V14.01,2013-07-06 20:33:00,
2013-07-06 16:38:00,88.2,72.6,30.08,SSW,198,5.0,12.0,60,0.00,,---,0.00,VWS V14.01,2013-07-06 20:38:00,
2013-07-06 16:43:00,87.7,72.6,30.08,South,169,10.0,13.0,61,0.00,,---,0.00,VWS V14.01,2013-07-06 20:43:00,
2013-07-06 16:48:00,87.7,72.6,30.08,South,185,3.0,13.0,61,0.00,,---,0.00,VWS V14.01,2013-07-06 20:48:00,
2013-07-06 16:53:00,87.9,72.8,30.08,South,180,9.0,13.0,61,0.00,,---,0.00,VWS V14.01,2013-07-06 20:53:00,
2013-07-06 16:58:00,88.2,72.6,30.08,South,179,7.0,13.0,60,0.00,,---,0.00,VWS V14.01,2013-07-06 20:58:00,
2013-07-06 17:03:00,88.3,73.2,30.08,SSE,157,6.0,9.0,61,0.00,,---,0.00,VWS V14.01,2013-07-06 21:03:00,
2013-07-06 17:08:00,88.2,72.1,30.08,South,183,5.0,10.0,59,0.00,,---,0.00,VWS V14.01,2013-07-06 21:08:00,
2013-07-06 17:13:00,87.7,72.6,30.08,South,180,5.0,13.0,61,0.00,,---,0.00,VWS V14.01,2013-07-06 21:13:00,
2013-07-06 17:18:00,87.8,72.7,30.08,SSE,164,3.0,13.0,61,0.00,,---,0.00,VWS V14.01,2013-07-06 21:18:00,
2013-07-06 17:24:00,88.3,72.2,30.08,SW,232,4.0,13.0,59,0.00,,---,0.00,VWS V14.01,2013-07-06 21:24:00,
2013-07-06 17:29:00,88.1,72.0,30.07,South,187,5.0,13.0,59,0.00,,---,0.00,VWS V14.01,2013-07-06 21:29:00,
2013-07-06 17:34:00,87.7,71.1,30.07,SSW,197,6.0,13.0,58,0.00,,---,0.00,VWS V14.01,2013-07-06 21:34:00,
2013-07-06 17:39:00,88.0,70.9,30.07,SSW,194,1.0,13.0,57,0.00,,---,0.00,VWS V14.01,2013-07-06 21:39:00,
2013-07-06 17:45:00,88.8,71.6,30.07,SSW,205,4.0,13.0,57,0.00,,---,0.00,VWS V14.01,2013-07-06 21:45:00,
2013-07-06 17:50:00,89.0,72.3,30.07,West,261,3.0,13.0,58,0.00,,---,0.00,VWS V14.01,2013-07-06 21:50:00,
2013-07-06 17:56:00,88.2,71.6,30.07,South,180,6.0,13.0,58,0.00,,---,0.00,VWS V14.01,2013-07-06 21:56:00,
2013-07-06 18:01:00,87.7,71.6,30.06,SSW,198,4.0,5.0,59,0.00,,---,0.00,VWS V14.01,2013-07-06 22:01:00,
2013-07-06 18:06:00,87.9,71.3,30.06,SSW,213,2.0,6.0,58,0.00,,---,0.00,VWS V14.01,2013-07-06 22:06:00,
2013-07-06 18:11:00,87.9,71.3,30.06,SSW,198,4.0,11.0,58,0.00,,---,0.00,VWS V14.01,2013-07-06 22:11:00,
2013-07-06 18:17:00,87.1,70.5,30.06,South,190,6.0,13.0,58,0.00,,---,0.00,VWS V14.01,2013-07-06 22:17:00,
2013-07-06 18:22:00,86.8,71.3,30.06,South,184,4.0,13.0,60,0.00,,---,0.00,VWS V14.01,2013-07-06 22:22:00,
2013-07-06 18:27:00,86.6,71.1,30.06,SSW,194,5.0,13.0,60,0.00,,---,0.00,VWS V14.01,2013-07-06 22:27:00,
2013-07-06 18:32:00,86.4,71.4,30.07,SSE,149,4.0,6.0,61,0.00,,---,0.00,VWS V14.01,2013-07-06 22:32:00,
2013-07-06 18:38:00,86.4,71.4,30.07,South,182,2.0,9.0,61,0.00,,---,0.00,VWS V14.01,2013-07-06 22:38:00,
2013-07-06 18:44:00,86.6,71.6,30.06,South,178,3.0,9.0,61,0.00,,---,0.00,VWS V14.01,2013-07-06 22:44:00,
2013-07-06 18:49:00,86.8,71.8,30.06,SSW,203,1.0,9.0,61,0.00,,---,0.00,VWS V14.01,2013-07-06 22:49:00,
2013-07-06 18:54:00,86.7,71.7,30.06,South,187,4.0,10.0,61,0.00,,---,0.00,VWS V14.01,2013-07-06 22:54:00,
2013-07-06 18:59:00,86.2,71.2,30.07,South,175,11.0,11.0,61,0.00,,---,0.00,VWS V14.01,2013-07-06 22:59:00,
2013-07-06 19:04:00,85.9,71.4,30.07,South,181,5.0,8.0,62,0.00,,---,0.00,VWS V14.01,2013-07-06 23:04:00,
2013-07-06 19:09:00,85.7,71.7,30.06,South,180,4.0,8.0,63,0.00,,---,0.00,VWS V14.01,2013-07-06 23:09:00,
2013-07-06 19:14:00,85.7,71.7,30.06,South,183,1.0,9.0,63,0.00,,---,0.00,VWS V14.01,2013-07-06 23:14:00,
2013-07-06 19:19:00,85.5,71.5,30.06,South,181,0.0,9.0,63,0.00,,---,0.00,VWS V14.01,2013-07-06 23:19:00,
2013-07-06 19:24:00,85.4,71.4,30.06,SSW,196,4.0,9.0,63,0.00,,---,0.00,VWS V14.01,2013-07-06 23:24:00,
2013-07-06 19:29:00,85.2,71.7,30.06,South,186,4.0,9.0,64,0.00,,---,0.00,VWS V14.01,2013-07-06 23:29:00,
2013-07-06 19:34:00,85.0,71.5,30.06,South,183,3.0,7.0,64,0.00,,---,0.00,VWS V14.01,2013-07-06 23:34:00,
2013-07-06 19:39:00,84.6,71.1,30.07,South,180,3.0,9.0,64,0.00,,---,0.00,VWS V14.01,2013-07-06 23:39:00,
2013-07-06 19:45:00,84.2,70.2,30.07,South,188,4.0,9.0,63,0.00,,---,0.00,VWS V14.01,2013-07-06 23:45:00,
2013-07-06 19:50:00,83.9,70.4,30.07,South,183,3.0,9.0,64,0.00,,---,0.00,VWS V14.01,2013-07-06 23:50:00,
2013-07-06 19:55:00,83.6,70.6,30.07,South,171,1.0,9.0,65,0.00,,---,0.00,VWS V14.01,2013-07-06 23:55:00,
2013-07-06 20:01:00,83.5,70.5,30.07,South,191,1.0,3.0,65,0.00,,---,0.00,VWS V14.01,2013-07-07 00:01:00,
2013-07-06 20:06:00,83.1,70.6,30.07,South,187,4.0,5.0,66,0.00,,---,0.00,VWS V14.01,2013-07-07 00:06:00,
2013-07-06 20:11:00,82.7,70.2,30.07,South,185,0.0,6.0,66,0.00,,---,0.00,VWS V14.01,2013-07-07 00:11:00,
2013-07-06 20:16:00,82.3,69.4,30.07,South,185,2.0,6.0,65,0.00,,---,0.00,VWS V14.01,2013-07-07 00:16:00,
2013-07-06 20:21:00,81.9,69.4,30.07,South,182,2.0,6.0,66,0.00,,---,0.00,VWS V14.01,2013-07-07 00:21:00,
2013-07-06 20:26:00,81.5,69.1,30.07,South,191,0.0,6.0,66,0.00,,---,0.00,VWS V14.01,2013-07-07 00:26:00,
2013-07-06 20:31:00,81.2,69.2,30.08,South,188,0.0,1.0,67,0.00,,---,0.00,VWS V14.01,2013-07-07 00:31:00,
2013-07-06 20:37:00,81.0,69.0,30.08,South,180,1.0,2.0,67,0.00,,---,0.00,VWS V14.01,2013-07-07 00:37:00,
2013-07-06 20:42:00,80.7,69.2,30.08,South,182,2.0,4.0,68,0.00,,---,0.00,VWS V14.01,2013-07-07 00:42:00,
2013-07-06 20:47:00,80.3,68.8,30.08,South,186,1.0,4.0,68,0.00,,---,0.00,VWS V14.01,2013-07-07 00:47:00,
2013-07-06 20:52:00,80.0,68.5,30.08,South,189,0.0,4.0,68,0.00,,---,0.00,VWS V14.01,2013-07-07 00:52:00,
2013-07-06 20:57:00,79.8,68.3,30.08,South,178,2.0,4.0,68,0.00,,---,0.00,VWS V14.01,2013-07-07 00:57:00,
2013-07-06 21:02:00,79.6,68.1,30.08,South,173,2.0,2.0,68,0.00,,---,0.00,VWS V14.01,2013-07-07 01:02:00,
2013-07-06 21:07:00,79.5,68.0,30.08,South,183,1.0,3.0,68,0.00,,---,0.00,VWS V14.01,2013-07-07 01:07:00,
2013-07-06 21:12:00,79.4,67.9,30.09,South,177,0.0,5.0,68,0.00,,---,0.00,VWS V14.01,2013-07-07 01:12:00,
2013-07-06 21:18:00,79.3,67.8,30.09,SW,214,0.0,6.0,68,0.00,,---,0.00,VWS V14.01,2013-07-07 01:18:00,
2013-07-06 21:23:00,79.3,67.8,30.09,SSW,211,0.0,6.0,68,0.00,,---,0.00,VWS V14.01,2013-07-07 01:23:00,
2013-07-06 21:28:00,79.2,68.2,30.09,SW,234,0.0,6.0,69,0.00,,---,0.00,VWS V14.01,2013-07-07 01:28:00,
2013-07-06 21:33:00,79.1,68.1,30.09,SW,230,0.0,1.0,69,0.00,,---,0.00,VWS V14.01,2013-07-07 01:33:00,
2013-07-06 21:38:00,78.8,67.8,30.09,SW,231,0.0,1.0,69,0.00,,---,0.00,VWS V14.01,2013-07-07 01:38:00,
2013-07-06 21:43:00,78.7,68.1,30.09,SW,231,0.0,1.0,70,0.00,,---,0.00,VWS V14.01,2013-07-07 01:43:00,
2013-07-06 21:48:00,78.3,68.1,30.09,SW,231,0.0,1.0,71,0.00,,---,0.00,VWS V14.01,2013-07-07 01:48:00,
2013-07-06 21:53:00,77.9,67.8,30.10,SW,230,0.0,1.0,71,0.00,,---,0.00,VWS V14.01,2013-07-07 01:53:00,
2013-07-06 21:59:00,77.5,67.8,30.10,SW,236,2.0,3.0,72,0.00,,---,0.00,VWS V14.01,2013-07-07 01:59:00,
2013-07-06 22:04:00,77.1,68.2,30.10,WSW,245,0.0,3.0,74,0.00,,---,0.00,VWS V14.01,2013-07-07 02:04:00,
2013-07-06 22:10:00,77.0,68.1,30.10,WSW,246,0.0,3.0,74,0.00,,---,0.00,VWS V14.01,2013-07-07 02:10:00,
2013-07-06 22:15:00,76.9,68.0,30.11,WSW,246,0.0,3.0,74,0.00,,---,0.00,VWS V14.01,2013-07-07 02:15:00,
2013-07-06 22:20:00,76.9,68.0,30.11,WSW,246,0.0,3.0,74,0.00,,---,0.00,VWS V14.01,2013-07-07 02:20:00,
2013-07-06 22:25:00,76.7,68.2,30.11,WSW,246,0.0,3.0,75,0.00,,---,0.00,VWS V14.01,2013-07-07 02:25:00,
2013-07-06 22:30:00,76.6,68.1,30.11,WSW,246,0.0,3.0,75,0.00,,---,0.00,VWS V14.01,2013-07-07 02:30:00,
2013-07-06 22:35:00,76.4,68.3,30.11,WSW,246,0.0,0.0,76,0.00,,---,0.00,VWS V14.01,2013-07-07 02:35:00,
2013-07-06 22:40:00,76.2,68.1,30.11,WSW,246,0.0,0.0,76,0.00,,---,0.00,VWS V14.01,2013-07-07 02:40:00,
2013-07-06 22:45:00,76.0,68.3,30.11,WSW,246,0.0,0.0,77,0.00,,---,0.00,VWS V14.01,2013-07-07 02:45:00,
2013-07-06 22:50:00,75.6,68.3,30.11,WSW,246,0.0,0.0,78,0.00,,---,0.00,VWS V14.01,2013-07-07 02:50:00,
2013-07-06 22:55:00,75.0,68.1,30.11,WSW,246,0.0,1.0,79,0.00,,---,0.00,VWS V14.01,2013-07-07 02:55:00,
2013-07-06 23:00:00,74.6,68.0,30.11,WSW,246,0.0,0.0,80,0.00,,---,0.00,VWS V14.01,2013-07-07 03:00:00,
2013-07-06 23:05:00,74.3,68.1,30.11,WSW,246,0.0,0.0,81,0.00,,---,0.00,VWS V14.01,2013-07-07 03:05:00,
2013-07-06 23:11:00,74.1,67.9,30.11,WSW,246,0.0,0.0,81,0.00,,---,0.00,VWS V14.01,2013-07-07 03:11:00,
2013-07-06 23:16:00,74.0,68.2,30.11,WSW,246,0.0,0.0,82,0.00,,---,0.00,VWS V14.01,2013-07-07 03:16:00,
2013-07-06 23:21:00,73.9,68.1,30.11,WSW,246,0.0,0.0,82,0.00,,---,0.00,VWS V14.01,2013-07-07 03:21:00,
2013-07-06 23:27:00,73.8,68.0,30.11,WSW,246,0.0,0.0,82,0.00,,---,0.00,VWS V14.01,2013-07-07 03:27:00,
2013-07-06 23:32:00,73.6,68.1,30.11,WSW,246,0.0,0.0,83,0.00,,---,0.00,VWS V14.01,2013-07-07 03:32:00,
2013-07-06 23:37:00,73.3,68.2,30.11,WSW,246,0.0,0.0,84,0.00,,---,0.00,VWS V14.01,2013-07-07 03:37:00,
2013-07-06 23:42:00,73.1,68.0,30.11,WSW,246,0.0,0.0,84,0.00,,---,0.00,VWS V14.01,2013-07-07 03:42:00,
2013-07-06 23:47:00,72.9,67.8,30.11,WSW,246,0.0,0.0,84,0.00,,---,0.00,VWS V14.01,2013-07-07 03:47:00,
2013-07-06 23:52:00,72.7,67.9,30.11,WSW,246,0.0,0.0,85,0.00,,---,0.00,VWS V14.01,2013-07-07 03:52:00,
2013-07-06 23:57:00,72.6,68.2,30.11,WSW,246,0.0,0.0,86,0.00,,---,0.00,VWS V14.01,2013-07-07 03:57:00,